Time;durP1;ratioP1;P1;durP2;ratioP2;P2;SDS_P1;SDS_P2;PMS_P1;PMS_P2;Temp;Humidity;BMP_temperature;BMP_pressure;BME280_temperature;BME280_humidity;BME280_pressure;Samples;Min_cycle;Max_cycle;Signal;HPM_P1;HPM_P2
2021/06/04 00:01:14;;;;;;;3.85;1.90;;;16.20;99.90;;;15.62;92.82;97974.81;5011736;28;20045;-69
2021/06/04 00:03:43;;;;;;;5.22;2.63;;;16.20;99.90;;;15.56;93.17;97975.16;5031597;28;20394;-69
2021/06/04 00:06:12;;;;;;;4.25;2.22;;;16.10;99.90;;;15.52;92.57;97970.19;5010018;28;20099;-69
2021/06/04 00:08:40;;;;;;;5.63;2.47;;;16.00;99.90;;;15.51;92.37;97974.56;5012987;28;20037;-69
2021/06/04 00:11:17;;;;;;;6.07;2.78;;;16.00;99.90;;;15.16;94.81;97972.13;5013382;28;20079;-69
2021/06/04 00:14:28;;;;;;;7.57;4.03;;;16.00;99.90;;;15.06;96.76;97974.41;5027947;28;20042;-69
2021/06/04 00:17:19;;;;;;;7.10;3.83;;;16.00;99.90;;;14.99;98.01;97977.44;5012991;28;20419;-69
2021/06/04 00:20:22;;;;;;;5.60;3.43;;;15.80;99.90;;;15.02;99.07;97978.09;5007893;28;20038;-69
2021/06/04 00:23:10;;;;;;;4.60;2.60;;;15.80;99.90;;;15.13;96.80;97974.09;5029292;28;20092;-69
2021/06/04 00:25:58;;;;;;;3.55;2.28;;;15.80;99.90;;;15.24;95.39;97966.50;5014718;28;20145;-69
2021/06/04 00:28:46;;;;;;;4.32;3.03;;;15.80;99.90;;;15.24;96.90;97958.66;5015916;28;20143;-69
2021/06/04 00:31:34;;;;;;;5.15;3.90;;;15.80;99.90;;;15.01;99.43;97960.75;5021296;28;20338;-69
2021/06/04 00:34:23;;;;;;;11.30;4.85;;;15.80;99.90;;;14.96;99.91;97961.91;5027825;28;20187;-69
2021/06/04 00:36:57;;;;;;;3.30;2.50;;;15.80;99.90;;;15.17;98.09;97968.59;5025360;28;20047;-69
2021/06/04 00:39:29;;;;;;;8.77;2.95;;;15.70;99.90;;;15.22;96.30;97963.13;4996578;28;20107;-69
2021/06/04 00:42:06;;;;;;;4.03;2.17;;;15.80;99.90;;;15.30;94.56;97970.53;5013313;28;20049;-69
2021/06/04 00:44:35;;;;;;;6.07;2.60;;;15.80;99.90;;;15.20;92.32;97971.03;5025081;28;20107;-69
2021/06/04 00:47:04;;;;;;;6.40;2.83;;;15.80;99.90;;;15.06;92.56;97970.97;5029847;28;20065;-69
2021/06/04 00:49:32;;;;;;;5.78;2.55;;;15.60;99.90;;;14.96;93.00;97965.41;5012180;28;20049;-69
2021/06/04 00:52:26;;;;;;;5.30;2.17;;;15.50;99.90;;;14.99;93.49;97967.00;5010005;28;20128;-69
2021/06/04 00:55:19;;;;;;;3.25;1.80;;;15.60;99.90;;;15.04;91.63;97954.50;5011658;28;20041;-69
2021/06/04 00:58:08;;;;;;;3.70;2.10;;;15.60;99.90;;;15.09;90.90;97962.94;5015240;28;20484;-71
2021/06/04 01:00:44;;;;;;;5.82;1.92;;;15.60;99.90;;;14.95;92.03;97968.09;4995209;28;20051;-69
2021/06/04 01:03:11;;;;;;;6.68;2.80;;;15.60;99.90;;;14.96;92.75;97967.13;5026062;28;20466;-69
2021/06/04 01:05:42;;;;;;;4.07;3.10;;;15.50;99.90;;;14.93;94.73;97964.69;5028747;28;20100;-69
2021/06/04 01:08:34;;;;;;;3.38;2.30;;;15.50;99.90;;;15.04;92.67;97968.41;4994987;28;20408;-69
2021/06/04 01:11:39;;;;;;;4.80;2.15;;;15.60;99.90;;;14.91;92.59;97967.38;5026716;28;20037;-69
2021/06/04 01:15:04;;;;;;;5.32;2.85;;;15.60;99.90;;;14.80;92.17;97970.59;5004239;28;20494;-69
2021/06/04 01:17:49;;;;;;;9.73;2.50;;;15.50;99.90;;;14.84;92.73;97966.03;5002303;28;20054;-69
2021/06/04 01:21:22;;;;;;;12.30;3.25;;;15.50;99.90;;;14.91;93.23;97970.00;5010206;28;20076;-69
2021/06/04 01:24:38;;;;;;;7.90;3.33;;;15.50;99.90;;;14.73;93.52;97966.59;5013390;28;20342;-69
2021/06/04 01:27:13;;;;;;;6.63;3.22;;;15.50;99.90;;;14.64;93.75;97967.97;5028127;28;20037;-69
2021/06/04 01:30:30;;;;;;;7.10;2.92;;;15.40;99.90;;;14.79;94.09;97971.50;5015176;28;20041;-69
2021/06/04 01:33:05;;;;;;;4.50;1.33;;;15.40;99.90;;;14.78;93.70;97967.22;5012344;28;20046;-69
2021/06/04 01:35:45;;;;;;;6.22;1.80;;;15.50;99.90;;;14.91;93.52;97967.38;5010228;28;20517;-70
2021/06/04 01:38:21;;;;;;;7.88;2.75;;;15.60;99.90;;;15.00;93.88;97969.50;5010468;28;20073;-69
2021/06/04 01:41:13;;;;;;;3.58;2.05;;;15.60;99.90;;;14.74;95.81;97970.09;5023349;28;20045;-70
2021/06/04 01:44:15;;;;;;;5.55;3.00;;;15.70;99.90;;;14.97;95.06;97974.06;5003661;28;20045;-69
2021/06/04 01:47:08;;;;;;;6.65;3.17;;;15.70;99.90;;;14.83;95.58;97977.44;5008478;28;20133;-69
2021/06/04 01:49:58;;;;;;;5.38;2.38;;;15.70;99.90;;;14.96;95.65;97980.22;5011332;28;20030;-69
2021/06/04 01:52:47;;;;;;;3.10;1.80;;;15.80;99.90;;;15.11;93.34;97979.38;5012291;28;20048;-70
2021/06/04 01:55:40;;;;;;;3.20;1.70;;;15.80;99.90;;;15.24;92.03;97984.81;5026118;28;20475;-69
2021/06/04 01:58:38;;;;;;;5.03;2.10;;;15.90;99.90;;;15.32;92.18;97976.53;5013665;28;20069;-69
2021/06/04 02:01:23;;;;;;;4.72;2.22;;;15.90;99.90;;;15.34;92.25;97969.44;4994940;28;20081;-70
2021/06/04 02:03:51;;;;;;;3.75;1.70;;;16.00;99.90;;;15.31;91.72;97973.06;4995290;28;20045;-69
2021/06/04 02:06:38;;;;;;;8.75;1.55;;;16.00;99.90;;;15.32;90.91;97966.06;5027422;28;20060;-69
2021/06/04 02:09:28;;;;;;;6.18;1.90;;;16.00;99.90;;;15.45;90.53;97965.28;5014228;28;20049;-69
2021/06/04 02:12:16;;;;;;;4.47;1.98;;;16.00;99.90;;;15.28;92.14;97965.41;5027086;28;20034;-69
2021/06/04 02:15:30;;;;;;;4.97;3.30;;;15.90;99.90;;;15.01;94.50;97967.75;5028175;28;20203;-69
2021/06/04 02:19:16;;;;;;;5.88;3.55;;;15.80;99.90;;;14.99;95.82;97967.84;5011480;28;20072;-69
2021/06/04 02:22:48;;;;;;;5.53;3.80;;;15.70;99.90;;;15.12;93.84;97965.41;5013992;28;20179;-70
2021/06/04 02:26:03;;;;;;;5.13;1.92;;;15.70;99.90;;;15.12;92.39;97965.41;4991490;28;20088;-70
2021/06/04 02:29:27;;;;;;;8.50;4.07;;;15.70;99.90;;;14.95;94.91;97968.91;5013674;28;20534;-70
2021/06/04 02:32:27;;;;;;;6.30;3.67;;;15.60;99.90;;;14.79;96.46;97968.06;5029881;28;20351;-69
2021/06/04 02:35:21;;;;;;;7.15;3.40;;;15.50;99.90;;;14.68;98.54;97965.16;4998847;28;20053;-69
2021/06/04 02:38:21;;;;;;;8.77;4.80;;;15.50;99.90;;;14.68;99.34;97960.78;5005154;28;20037;-69
2021/06/04 02:41:02;;;;;;;8.02;6.15;;;15.50;99.90;;;14.55;100.00;97963.22;5015477;28;20044;-69
2021/06/04 02:43:46;;;;;;;6.85;4.97;;;15.40;99.90;;;14.54;100.00;97958.91;5031974;28;20056;-70
2021/06/04 02:46:21;;;;;;;9.40;6.07;;;15.40;99.90;;;14.44;100.00;97968.13;5029649;28;20052;-69
2021/06/04 02:48:51;;;;;;;7.38;4.63;;;15.30;99.90;;;14.39;100.00;97970.09;5013630;28;20074;-69
2021/06/04 02:51:58;;;;;;;8.80;6.35;;;15.30;99.90;;;14.35;100.00;97971.22;5015287;28;20519;-70
2021/06/04 02:54:31;;;;;;;13.00;6.80;;;15.20;99.90;;;14.27;100.00;97975.97;4987329;28;20656;-69
2021/06/04 02:57:02;;;;;;;;;;;15.30;99.90;;;14.27;100.00;97978.59;5014326;28;20045;-69
2021/06/04 02:59:35;;;;;;;9.60;6.13;;;15.30;99.90;;;14.27;100.00;97975.97;5030429;28;19928;-69
2021/06/04 03:02:30;;;;;;;6.22;3.80;;;15.30;99.90;;;14.54;100.00;97984.16;5029753;28;20072;-69
2021/06/04 03:05:05;;;;;;;9.13;4.82;;;15.30;99.90;;;14.53;99.81;97977.22;5032311;28;20194;-69
2021/06/04 03:07:38;;;;;;;7.13;6.20;;;15.20;99.90;;;14.53;98.93;97979.84;5011935;28;20037;-69
2021/06/04 03:10:34;;;;;;;6.47;4.67;;;15.20;99.90;;;14.56;98.91;97975.34;5015481;28;20118;-69
2021/06/04 03:13:29;;;;;;;5.30;3.47;;;15.20;99.90;;;14.54;97.84;97973.69;5030240;28;20295;-69
2021/06/04 03:16:16;;;;;;;4.47;3.38;;;15.20;99.90;;;14.51;96.58;97979.09;5013955;28;20045;-69
2021/06/04 03:18:54;;;;;;;6.35;2.50;;;15.20;99.90;;;14.56;95.31;97980.56;5030029;28;20041;-69
2021/06/04 03:21:31;;;;;;;8.75;3.67;;;15.20;99.90;;;14.51;95.37;97985.16;5014335;28;20041;-69
2021/06/04 03:24:04;;;;;;;9.20;3.65;;;15.20;99.90;;;14.53;95.75;97982.44;5031113;28;20044;-69
2021/06/04 03:26:52;;;;;;;7.60;4.20;;;15.10;99.90;;;14.52;95.89;97991.22;5023134;28;20151;-70
2021/06/04 03:29:39;;;;;;;5.25;2.85;;;15.20;99.90;;;14.54;95.29;97990.25;5029409;28;20092;-70
2021/06/04 03:32:26;;;;;;;6.53;3.38;;;15.20;99.90;;;14.57;95.28;97982.28;5014924;28;20066;-70
2021/06/04 03:35:14;;;;;;;8.68;3.17;;;15.20;99.90;;;14.60;94.41;97984.72;5016592;28;20491;-70
2021/06/04 03:38:04;;;;;;;8.00;2.50;;;15.20;99.90;;;14.69;93.20;97985.13;5029559;28;20045;-70
2021/06/04 03:40:52;;;;;;;3.75;2.90;;;15.30;99.90;;;14.72;92.80;97983.22;5027634;28;20132;-70
2021/06/04 03:43:39;;;;;;;6.63;2.83;;;15.40;99.90;;;14.72;93.70;97985.84;5028672;28;20403;-70
2021/06/04 03:46:27;;;;;;;6.70;3.35;;;15.50;99.90;;;14.77;93.42;97981.19;5020648;28;20140;-70
2021/06/04 03:49:17;;;;;;;7.90;3.45;;;15.50;99.90;;;14.73;92.31;97984.88;5014775;28;20045;-70
2021/06/04 03:52:09;;;;;;;6.88;2.65;;;15.50;99.90;;;14.75;92.04;97984.81;5029228;28;20037;-70
2021/06/04 03:54:58;;;;;;;4.78;2.65;;;15.50;99.90;;;14.68;93.71;97993.91;5010767;28;20037;-70
2021/06/04 03:57:48;;;;;;;4.43;3.63;;;15.60;99.90;;;14.88;92.99;97996.31;5026623;28;20041;-70
2021/06/04 04:00:54;;;;;;;4.32;3.42;;;15.60;99.90;;;14.80;93.91;97995.88;5027380;28;20256;-70
2021/06/04 04:03:26;;;;;;;6.65;4.13;;;15.70;99.90;;;14.66;94.36;97991.38;5014409;28;20515;-70
2021/06/04 04:05:54;;;;;;;9.75;3.67;;;15.80;99.90;;;14.73;94.74;97989.28;5010061;28;20050;-70
2021/06/04 04:08:26;;;;;;;6.18;4.70;;;15.70;99.90;;;14.47;97.76;97990.63;5028629;28;20041;-70
2021/06/04 04:10:57;;;;;;;9.15;5.18;;;15.60;99.90;;;14.61;97.27;97991.63;5029663;28;20515;-70
2021/06/04 04:13:26;;;;;;;5.28;4.32;;;15.70;99.90;;;14.76;96.47;97992.59;5031545;28;20038;-70
2021/06/04 04:15:55;;;;;;;8.45;4.60;;;15.70;99.90;;;14.83;96.58;97993.09;5030238;28;20499;-70
2021/06/04 04:18:22;;;;;;;7.32;5.03;;;15.70;99.90;;;14.92;96.77;97992.63;5029763;28;20111;-70
2021/06/04 04:20:54;;;;;;;4.85;4.15;;;15.80;99.90;;;15.13;95.38;98006.28;5030072;28;20049;-70
2021/06/04 04:23:33;;;;;;;4.72;3.28;;;15.90;99.90;;;15.33;93.79;98001.75;5030934;28;20053;-70
2021/06/04 04:26:00;;;;;;;4.80;2.97;;;16.00;99.90;;;15.25;93.96;98007.41;5006533;28;20458;-70
2021/06/04 04:28:36;;;;;;;4.55;2.88;;;16.10;99.90;;;15.44;93.12;98009.84;4996225;28;20038;-70
2021/06/04 04:31:07;;;;;;;8.27;3.58;;;16.20;99.90;;;15.49;92.88;98007.81;5024253;28;20437;-70
2021/06/04 04:33:56;;;;;;;4.28;2.95;;;16.10;99.90;;;15.65;91.50;98003.41;5028072;28;20033;-70
2021/06/04 04:36:48;;;;;;;5.20;3.78;;;16.30;99.90;;;15.48;92.50;98012.19;5027298;28;20466;-70
2021/06/04 04:39:24;;;;;;;7.43;3.88;;;16.30;99.90;;;15.35;94.39;98003.38;5030316;28;20089;-70
2021/06/04 04:41:54;;;;;;;7.32;4.28;;;16.40;99.90;;;15.17;95.57;98002.59;5027384;28;20045;-70
2021/06/04 04:44:28;;;;;;;7.32;4.38;;;16.40;99.90;;;15.36;94.50;98005.03;5030524;28;20139;-70
2021/06/04 04:46:56;;;;;;;13.35;5.28;;;16.40;99.90;;;15.22;95.05;98010.19;5010953;28;20438;-70
2021/06/04 04:49:23;;;;;;;6.30;5.63;;;16.30;99.90;;;15.17;95.90;98013.06;5030076;28;20073;-70
2021/06/04 04:51:50;;;;;;;4.60;3.83;;;16.40;99.90;;;15.35;95.65;98015.56;5011198;28;20049;-70
2021/06/04 04:54:18;;;;;;;9.20;5.38;;;16.40;99.90;;;15.25;96.41;98012.63;5008980;28;20037;-70
2021/06/04 04:56:48;;;;;;;5.90;4.88;;;16.60;99.90;;;15.50;95.37;98013.91;5022078;28;20045;-70
2021/06/04 04:59:16;;;;;;;7.20;5.55;;;16.70;99.90;;;15.56;96.02;98017.03;5015498;28;20068;-70
2021/06/04 05:01:44;;;;;;;6.13;5.10;;;16.80;99.90;;;15.55;95.83;98011.88;5025514;28;20056;-70
2021/06/04 05:04:12;;;;;;;7.15;4.97;;;16.80;99.90;;;15.53;96.04;98011.09;5030186;28;20053;-70
2021/06/04 05:06:40;;;;;;;6.60;4.90;;;16.80;99.90;;;15.65;95.41;98010.44;5029483;28;20445;-70
2021/06/04 05:09:08;;;;;;;11.77;5.25;;;16.70;99.90;;;15.43;96.74;98016.84;5011697;28;20038;-70
2021/06/04 05:11:36;;;;;;;5.70;4.75;;;16.70;99.90;;;15.54;96.78;98013.63;5012485;28;20487;-70
2021/06/04 05:14:03;;;;;;;6.30;4.88;;;16.70;99.90;;;15.37;97.56;98011.09;5029174;28;20045;-70
2021/06/04 05:16:30;;;;;;;6.05;4.35;;;16.80;99.90;;;15.61;96.01;98012.38;4991535;28;20125;-70
2021/06/04 05:18:58;;;;;;;5.82;4.85;;;16.80;99.90;;;15.53;96.70;98016.34;5007464;28;20045;-70
2021/06/04 05:21:27;;;;;;;7.97;4.65;;;16.80;99.90;;;15.69;95.43;98010.19;5016950;28;20108;-70
2021/06/04 05:23:54;;;;;;;10.77;5.20;;;16.70;99.90;;;15.80;94.98;98009.56;5025226;28;20220;-70
2021/06/04 05:26:21;;;;;;;6.45;4.78;;;16.80;99.90;;;16.07;93.08;98009.75;5012005;28;20414;-70
2021/06/04 05:28:48;;;;;;;7.90;4.85;;;17.00;99.90;;;15.81;95.25;98010.44;5012126;28;20086;-70
2021/06/04 05:31:16;;;;;;;7.15;5.18;;;17.10;99.90;;;15.80;95.41;98011.34;5027668;28;20033;-70
2021/06/04 05:33:47;;;;;;;7.30;4.50;;;17.00;99.90;;;15.75;94.94;98013.41;5029239;28;20041;-70
2021/06/04 05:36:24;;;;;;;6.22;5.15;;;16.90;99.90;;;16.03;93.12;98017.88;5010500;28;20046;-70
2021/06/04 05:38:51;;;;;;;4.45;3.75;;;16.70;99.90;;;16.31;91.96;98025.84;5012297;28;20041;-70
2021/06/04 05:41:20;;;;;;;4.70;4.00;;;16.80;99.90;;;16.63;90.20;98019.63;5020534;28;20099;-70
2021/06/04 05:43:48;;;;;;;6.00;4.50;;;17.10;99.90;;;16.60;90.23;98020.63;5020764;28;20053;-70
2021/06/04 05:46:19;;;;;;;6.18;4.30;;;17.40;99.90;;;16.79;90.13;98019.53;5009373;28;20053;-70
2021/06/04 05:48:49;;;;;;;7.88;4.90;;;17.60;99.90;;;16.91;90.53;98024.91;5011953;28;20056;-70
2021/06/04 05:51:28;;;;;;;5.97;3.10;;;17.80;99.90;;;17.17;90.24;98025.06;5028054;28;20475;-70
2021/06/04 05:53:55;;;;;;;7.03;4.05;;;18.10;99.90;;;17.05;90.49;98021.44;5023116;28;20104;-70
2021/06/04 05:56:25;;;;;;;8.13;4.90;;;18.20;99.90;;;17.14;90.37;98022.66;5003245;28;20121;-70
2021/06/04 05:58:52;;;;;;;12.20;4.93;;;18.20;99.90;;;17.01;91.57;98025.16;5026549;28;20049;-70
2021/06/04 06:01:40;;;;;;;5.57;3.55;;;18.00;99.90;;;17.19;91.30;98023.19;5025483;28;20086;-71
2021/06/04 06:04:28;;;;;;;5.70;3.88;;;18.10;99.90;;;17.39;90.06;98027.19;5012935;28;20041;-71
2021/06/04 06:07:15;;;;;;;3.50;2.88;;;18.20;99.90;;;17.65;88.55;98027.31;5016275;28;20076;-70
2021/06/04 06:10:05;;;;;;;3.13;2.30;;;18.50;99.90;;;18.04;87.74;98034.44;5009359;28;20610;-71
2021/06/04 06:12:32;;;;;;;3.97;2.88;;;18.80;99.90;;;18.21;87.13;98028.06;5008156;28;20038;-70
2021/06/04 06:15:01;;;;;;;3.83;2.30;;;19.00;99.90;;;18.53;85.77;98025.88;5009728;28;20329;-70
2021/06/04 06:17:28;;;;;;;5.20;3.05;;;19.30;99.90;;;18.43;85.00;98031.88;5027380;28;20417;-70
2021/06/04 06:19:55;;;;;;;6.47;3.67;;;19.30;99.90;;;18.48;83.60;98038.50;5030191;28;20103;-70
2021/06/04 06:22:22;;;;;;;3.80;2.85;;;19.50;99.90;;;18.12;87.25;98040.00;5027191;28;20053;-70
2021/06/04 06:24:51;;;;;;;5.72;3.38;;;19.60;99.90;;;17.84;88.54;98038.34;5010172;28;20103;-71
2021/06/04 06:27:19;;;;;;;4.22;3.30;;;19.70;99.90;;;17.68;89.04;98040.25;5008156;28;20033;-71
2021/06/04 06:29:46;;;;;;;4.65;3.53;;;19.70;99.90;;;17.66;90.78;98047.38;5009552;28;20585;-71
2021/06/04 06:32:18;;;;;;;4.65;3.90;;;19.70;99.90;;;17.66;90.79;98042.97;5028920;28;20052;-71
2021/06/04 06:34:45;;;;;;;8.77;4.22;;;19.70;99.90;;;17.77;89.98;98053.63;5028805;28;20095;-70
2021/06/04 06:37:12;;;;;;;8.00;3.70;;;19.80;99.90;;;18.04;88.68;98055.44;5010620;28;20487;-70
2021/06/04 06:39:39;;;;;;;5.43;3.75;;;19.80;99.90;;;18.09;88.23;98053.34;5011087;28;20037;-71
2021/06/04 06:42:08;;;;;;;5.13;3.78;;;20.00;99.90;;;18.06;88.82;98053.53;5025893;28;20052;-71
2021/06/04 06:44:35;;;;;;;6.20;4.00;;;20.10;99.90;;;18.26;89.02;98054.03;5008732;28;20057;-71
2021/06/04 06:47:04;;;;;;;5.63;4.05;;;20.30;99.90;;;18.23;89.26;98060.34;5008632;28;20482;-70
2021/06/04 06:49:31;;;;;;;9.10;4.63;;;20.30;99.90;;;18.41;89.56;98057.44;5016429;28;21764;-70
2021/06/04 06:51:59;;;;;;;9.50;4.30;;;20.40;99.90;;;18.63;87.22;98057.66;5009001;28;20129;-71
2021/06/04 06:54:31;;;;;;;5.88;3.70;;;20.50;99.90;;;18.83;86.96;98052.88;5024247;28;20076;-71
2021/06/04 06:56:59;;;;;;;5.30;3.50;;;20.60;99.90;;;18.89;85.48;98050.66;5021396;28;20104;-71
2021/06/04 06:59:29;;;;;;;5.00;3.33;;;20.60;99.90;;;18.96;85.45;98058.97;5028149;28;20156;-71
2021/06/04 07:02:01;;;;;;;7.68;3.67;;;20.50;99.90;;;19.18;84.80;98053.91;5003598;28;20060;-70
2021/06/04 07:04:28;;;;;;;6.97;3.57;;;20.60;99.90;;;19.32;85.04;98060.81;5018761;28;20037;-71
2021/06/04 07:06:55;;;;;;;5.22;3.38;;;20.90;99.90;;;19.56;82.34;98057.38;5023151;28;20046;-71
2021/06/04 07:09:24;;;;;;;6.50;3.33;;;21.10;99.90;;;19.55;81.14;98056.56;5019443;28;20091;-71
2021/06/04 07:11:54;;;;;;;5.25;3.28;;;21.20;99.90;;;19.52;83.21;98058.56;5023399;28;20393;-71
2021/06/04 07:14:27;;;;;;;8.88;2.95;;;21.20;99.90;;;19.70;80.90;98062.53;5026750;28;20039;-71
2021/06/04 07:16:54;;;;;;;4.05;2.50;;;21.40;99.90;;;19.87;79.22;98057.84;5014597;28;20499;-70
2021/06/04 07:19:23;;;;;;;5.60;2.92;;;21.50;99.90;;;19.99;77.25;98060.41;5031924;28;20140;-70
2021/06/04 07:21:50;;;;;;;3.75;1.95;;;21.60;99.90;;;20.33;76.27;98057.91;5032194;28;20107;-71
2021/06/04 07:24:19;;;;;;;3.10;2.33;;;21.70;99.90;;;20.66;75.54;98061.63;5010039;28;20045;-71
2021/06/04 07:26:50;;;;;;;4.60;2.25;;;21.70;99.90;;;20.59;76.19;98066.53;4983510;28;20454;-71
2021/06/04 07:29:20;;;;;;;5.45;2.03;;;21.80;99.90;;;21.19;73.84;98063.72;4993830;28;20045;-71
2021/06/04 07:31:47;;;;;;;8.80;2.55;;;21.80;99.90;;;21.13;75.65;98061.59;5032117;28;20136;-70
2021/06/04 07:34:14;;;;;;;5.07;2.22;;;22.00;99.90;;;21.82;73.29;98064.88;5014819;28;20059;-71
2021/06/04 07:36:46;;;;;;;3.95;2.20;;;22.40;99.90;;;22.33;73.38;98066.91;5032167;28;20495;-71
2021/06/04 07:39:17;;;;;;;;;;;22.80;99.90;;;21.60;70.92;98075.50;4999194;28;20156;-71
2021/06/04 07:41:45;;;;;;;3.17;2.20;;;23.10;99.90;;;21.39;71.32;98068.28;5031774;28;20000;-71
2021/06/04 07:44:14;;;;;;;5.22;2.25;;;23.00;99.90;;;22.50;71.29;98070.78;5013765;28;20426;-71
2021/06/04 07:46:43;;;;;;;4.07;2.05;;;23.10;99.90;;;21.90;66.40;98072.19;5030888;28;20045;-71
2021/06/04 07:49:12;;;;;;;4.38;1.52;;;23.10;99.90;;;21.77;66.57;98072.34;4998653;28;20483;-71
2021/06/04 07:51:47;;;;;;;3.22;1.80;;;22.90;99.90;;;21.65;68.78;98071.53;5014259;28;20087;-71
2021/06/04 07:54:18;;;;;;;5.10;1.30;;;22.80;99.90;;;21.17;66.94;98073.59;5015909;28;20095;-70
2021/06/04 07:56:46;;;;;;;2.47;1.10;;;22.60;99.90;;;21.65;66.43;98081.25;5014370;28;20049;-70
2021/06/04 07:59:13;;;;;;;3.38;1.40;;;22.40;99.90;;;21.49;65.78;98065.78;5030983;28;20049;-70
2021/06/04 08:01:41;;;;;;;2.90;1.27;;;22.40;99.90;;;21.67;65.09;98071.41;5030733;28;20470;-71
2021/06/04 08:04:09;;;;;;;4.60;1.40;;;22.40;99.90;;;22.06;66.03;98083.19;5030328;28;20427;-71
2021/06/04 08:06:37;;;;;;;2.97;1.48;;;22.60;99.90;;;21.81;65.31;98071.13;4997509;28;20095;-70
2021/06/04 08:09:06;;;;;;;3.05;1.30;;;22.70;99.90;;;22.58;66.36;98086.03;5014506;28;20115;-70
2021/06/04 08:12:02;;;;;;;2.75;1.15;;;23.10;99.90;;;22.64;66.81;98077.56;5016123;28;20045;-70
2021/06/04 08:14:49;;;;;;;3.58;1.30;;;23.50;99.90;;;23.27;64.05;98069.56;5027398;28;20037;-70
2021/06/04 08:17:37;;;;;;;4.38;1.30;;;24.00;99.90;;;23.18;61.16;98070.38;5030121;28;20195;-70
2021/06/04 08:20:33;;;;;;;5.20;1.50;;;24.50;99.90;;;22.74;62.55;98072.34;5015930;28;20050;-70
2021/06/04 08:23:13;;;;;;;2.22;1.33;;;24.40;99.90;;;23.04;62.71;98076.03;5018029;28;20068;-71
2021/06/04 08:25:46;;;;;;;4.10;2.00;;;24.20;99.90;;;23.29;60.60;98066.81;5005272;28;20045;-70
2021/06/04 08:28:16;;;;;;;4.18;2.10;;;24.50;99.90;;;22.42;62.93;98064.44;5023093;28;20501;-70
2021/06/04 08:30:45;;;;;;;6.07;1.70;;;24.80;99.90;;;22.73;63.26;98065.38;5031676;28;20065;-70
2021/06/04 08:33:26;;;;;;;5.72;2.28;;;25.00;99.90;;;22.44;62.81;98062.50;5013301;28;20376;-70
2021/06/04 08:35:54;;;;;;;4.57;1.73;;;25.10;99.90;;;23.69;59.59;98065.94;5029405;28;20091;-70
2021/06/04 08:38:38;;;;;;;5.95;1.90;;;25.00;99.90;;;23.82;59.64;98063.91;5004612;28;20053;-70
2021/06/04 08:41:55;;;;;;;3.67;1.90;;;25.50;99.90;;;24.56;60.62;98063.41;5002608;28;20046;-71
2021/06/04 08:45:31;;;;;;;4.75;1.70;;;26.00;99.90;;;25.04;54.82;98064.25;4997307;28;20057;-71
2021/06/04 08:48:36;;;;;;;5.55;1.83;;;26.10;99.90;;;24.55;55.32;98066.19;5004049;28;20105;-71
2021/06/04 08:51:35;;;;;;;17.10;3.25;;;25.70;99.90;;;24.93;55.45;98064.44;5031618;28;20041;-71
2021/06/04 08:54:15;;;;;;;5.05;1.70;;;25.80;99.90;;;24.93;55.26;98057.31;4996783;28;20041;-71
2021/06/04 08:56:56;;;;;;;3.35;1.40;;;26.10;99.90;;;25.68;52.71;98065.25;4996698;28;20444;-71
2021/06/04 08:59:25;;;;;;;5.93;2.03;;;26.20;99.90;;;24.52;54.62;98064.66;5008413;28;20507;-71
2021/06/04 09:02:21;;;;;;;3.65;1.85;;;26.20;99.90;;;23.69;58.11;98053.53;5010454;28;20136;-71
2021/06/04 09:04:59;;;;;;;3.28;1.48;;;26.50;99.90;;;24.02;56.47;98054.19;4995562;28;20052;-71
2021/06/04 09:07:32;;;;;;;5.43;1.80;;;26.60;99.90;;;25.80;53.84;98055.28;5026252;28;20050;-71
2021/06/04 09:09:59;;;;;;;3.72;1.40;;;27.10;99.90;;;26.40;52.01;98054.69;5013043;28;20046;-71
2021/06/04 09:12:51;;;;;;;4.53;1.70;;;27.30;99.90;;;24.21;56.05;98059.47;5013024;28;20057;-72
2021/06/04 09:15:30;;;;;;;3.55;1.75;;;27.50;99.90;;;25.45;55.13;98057.72;5007312;28;20115;-71
2021/06/04 09:18:17;;;;;;;2.88;1.20;;;27.50;99.90;;;25.41;53.05;98053.66;5025281;28;20048;-71
2021/06/04 09:21:13;;;;;;;6.93;1.90;;;27.60;99.90;;;27.04;50.02;98056.16;5016250;28;20037;-72
2021/06/04 09:24:07;;;;;;;3.05;1.23;;;28.00;99.90;;;27.62;49.83;98051.13;5015243;28;20033;-71
2021/06/04 09:26:55;;;;;;;3.47;1.30;;;28.70;99.90;;;28.90;48.60;98041.75;5028455;28;20044;-72
2021/06/04 09:29:42;;;;;;;5.20;1.80;;;29.50;99.90;;;26.24;51.14;98050.06;5012018;28;20045;-69
2021/06/04 09:32:24;;;;;;;3.03;1.25;;;29.50;99.90;;;27.46;49.91;98049.22;4999895;28;20037;-69
2021/06/04 09:35:16;;;;;;;4.82;1.40;;;29.20;99.90;;;25.16;52.88;98055.16;5029112;28;20553;-72
2021/06/04 09:38:15;;;;;;;6.68;1.63;;;29.30;99.90;;;26.11;51.31;98066.41;5028399;28;20041;-71
2021/06/04 09:40:44;;;;;;;4.13;1.33;;;28.80;99.90;;;27.00;51.08;98056.63;4996705;28;20049;-71
2021/06/04 09:43:32;;;;;;;2.50;1.20;;;28.60;99.90;;;28.49;49.46;98052.50;5029421;28;20453;-71
2021/06/04 09:46:05;;;;;;;2.85;1.42;;;29.40;99.90;;;28.22;48.25;98047.44;4989280;28;20108;-71
2021/06/04 09:48:56;;;;;;;2.42;1.30;;;30.30;99.90;;;28.47;44.14;98053.66;5012456;28;20091;-71
2021/06/04 09:51:34;;;;;;;2.38;1.20;;;30.00;99.90;;;28.62;47.45;98045.78;5028760;28;20093;-71
2021/06/04 09:54:28;;;;;;;2.83;1.00;;;30.00;99.90;;;29.89;46.25;98042.22;5030211;28;20164;-71
2021/06/04 09:57:19;;;;;;;4.93;1.30;;;30.90;99.90;;;29.22;45.70;98037.34;5027965;28;20053;-72
2021/06/04 10:00:29;;;;;;;4.32;1.40;;;31.10;99.90;;;26.07;51.23;98051.75;5023799;28;20511;-72
2021/06/04 10:03:40;;;;;;;4.05;1.20;;;30.10;99.90;;;25.14;49.52;98048.31;5026536;28;20041;-72
2021/06/04 10:06:38;;;;;;;6.38;1.42;;;29.00;99.90;;;24.69;51.43;98051.66;5022698;28;20042;-71
2021/06/04 10:09:42;;;;;;;6.05;1.40;;;28.10;99.90;;;25.16;50.00;98044.53;5003168;28;20052;-71
2021/06/04 10:12:42;;;;;;;4.30;1.20;;;27.80;99.90;;;24.89;51.73;98036.50;4995630;28;20411;-71
2021/06/04 10:15:37;;;;;;;5.05;1.40;;;27.90;99.90;;;24.61;50.49;98037.28;4990874;28;20049;-71
2021/06/04 10:18:37;;;;;;;3.25;1.30;;;28.30;99.90;;;25.43;49.70;98040.22;5003998;28;20460;-71
2021/06/04 10:21:31;;;;;;;3.83;1.50;;;28.30;99.90;;;24.70;51.66;98032.06;5026485;28;20041;-72
2021/06/04 10:24:38;;;;;;;4.00;1.20;;;28.00;99.90;;;25.69;50.41;98027.06;5026302;28;20037;-71
2021/06/04 10:27:19;;;;;;;4.72;1.40;;;28.00;99.90;;;24.93;52.03;98014.84;5020319;28;20503;-71
2021/06/04 10:30:12;;;;;;;3.58;1.13;;;28.00;99.90;;;25.90;51.32;98018.84;5026572;28;20049;-70
2021/06/04 10:32:59;;;;;;;3.97;1.25;;;28.10;99.90;;;27.36;49.22;98011.22;5025994;28;20103;-71
2021/06/04 10:35:39;;;;;;;2.85;1.40;;;28.40;99.90;;;28.23;46.94;98012.56;4984331;28;20103;-71
2021/06/04 10:38:17;;;;;;;4.22;1.52;;;29.30;99.90;;;28.09;46.85;98008.72;5003900;28;20136;-71
2021/06/04 10:40:49;;;;;;;4.93;1.77;;;29.60;99.90;;;27.10;46.59;98010.25;4993687;28;20041;-71
2021/06/04 10:43:22;;;;;;;4.13;1.55;;;30.40;99.90;;;27.50;46.60;98002.59;5009490;28;20037;-71
2021/06/04 10:46:43;;;;;;;4.68;1.60;;;30.50;99.90;;;29.28;45.98;97999.22;5022168;28;20053;-71
2021/06/04 10:49:51;;;;;;;3.47;1.20;;;31.00;99.90;;;26.91;47.58;98003.34;5025094;28;20044;-71
2021/06/04 10:52:55;;;;;;;5.80;1.50;;;30.50;99.90;;;26.58;48.08;98001.47;5010342;28;20411;-71
2021/06/04 10:55:34;;;;;;;4.88;1.50;;;30.30;99.90;;;26.78;48.20;97986.94;5032106;28;20144;-71
2021/06/04 10:58:42;;;;;;;4.65;1.52;;;29.80;99.90;;;26.62;48.36;97986.84;5026641;28;20049;-71
2021/06/04 11:01:16;;;;;;;9.00;1.52;;;29.30;99.90;;;26.60;49.61;97978.19;5024100;28;20199;-71
2021/06/04 11:04:30;;;;;;;4.32;1.50;;;29.20;99.90;;;27.18;48.05;97976.63;5024674;28;20064;-71
2021/06/04 11:07:35;;;;;;;4.63;1.25;;;29.40;99.90;;;27.46;46.15;97969.25;4947083;28;20077;-71
2021/06/04 11:10:29;;;;;;;2.85;1.00;;;30.40;99.90;;;29.54;42.72;97961.50;5028416;28;20196;-71
2021/06/04 11:13:30;;;;;;;3.33;1.20;;;31.30;99.90;;;28.38;44.07;97978.03;5011232;28;20104;-71
2021/06/04 11:16:40;;;;;;;4.53;1.40;;;30.90;99.90;;;26.91;48.05;97968.72;5017353;28;20526;-71
2021/06/04 11:19:47;;;;;;;3.22;1.40;;;28.90;99.90;;;27.18;48.81;97973.97;5009753;28;20030;-71
2021/06/04 11:22:24;;;;;;;4.07;1.33;;;28.20;99.90;;;26.02;50.07;97980.41;5023031;28;20442;-71